Time;durP1;ratioP1;P1;durP2;ratioP2;P2;SDS_P1;SDS_P2;PMS_P1;PMS_P2;Temp;Humidity;BMP_temperature;BMP_pressure;BME280_temperature;BME280_humidity;BME280_pressure;Samples;Min_cycle;Max_cycle;Signal;HPM_P1;HPM_P2
2021/03/20 00:01:34;;;;;;;14.03;9.03;;;2.60;96.00;;;;;;4394440;32;20175;-68
2021/03/20 00:04:02;;;;;;;11.97;8.57;;;2.60;95.90;;;;;;4398262;32;20238;-66
2021/03/20 00:06:33;;;;;;;14.53;9.03;;;2.50;96.00;;;;;;4395665;32;20210;-68
2021/03/20 00:09:01;;;;;;;12.73;8.77;;;2.50;96.10;;;;;;4399532;32;20214;-67
2021/03/20 00:11:28;;;;;;;13.77;9.17;;;2.50;96.10;;;;;;4397222;32;20251;-66
2021/03/20 00:13:56;;;;;;;11.17;7.73;;;2.40;96.00;;;;;;4394235;32;20517;-68
2021/03/20 00:16:23;;;;;;;13.27;8.33;;;2.40;96.00;;;;;;4394037;32;20159;-67
2021/03/20 00:18:50;;;;;;;14.27;8.93;;;2.40;96.20;;;;;;4397805;32;20479;-65
2021/03/20 00:21:17;;;;;;;13.47;8.87;;;2.30;96.10;;;;;;4397346;32;20159;-64
2021/03/20 00:23:46;;;;;;;15.13;8.73;;;2.40;96.20;;;;;;4396781;32;20606;-66
2021/03/20 00:26:13;;;;;;;11.77;8.13;;;2.30;96.10;;;;;;4395011;32;20152;-65
2021/03/20 00:28:40;;;;;;;11.63;8.40;;;2.30;96.10;;;;;;4398725;32;20286;-64
2021/03/20 00:31:09;;;;;;;11.93;8.53;;;2.30;96.20;;;;;;4394039;32;20155;-67
2021/03/20 00:33:37;;;;;;;12.27;8.73;;;2.30;96.20;;;;;;4398843;32;20174;-62
2021/03/20 00:36:04;;;;;;;14.10;8.83;;;2.20;96.20;;;;;;4396412;32;20152;-66
2021/03/20 00:38:32;;;;;;;10.47;7.93;;;2.20;96.20;;;;;;4397429;32;20301;-67
2021/03/20 00:40:59;;;;;;;12.00;8.37;;;2.20;96.20;;;;;;4399179;32;20191;-66
2021/03/20 00:43:27;;;;;;;12.47;8.77;;;2.20;96.20;;;;;;4396137;32;20171;-67
2021/03/20 00:45:54;;;;;;;10.60;8.40;;;2.20;96.20;;;;;;4395558;32;20577;-68
2021/03/20 00:48:22;;;;;;;12.13;8.57;;;2.20;96.30;;;;;;4400088;32;20223;-66
2021/03/20 00:50:49;;;;;;;10.80;9.17;;;2.20;96.20;;;;;;4396868;32;20211;-66
2021/03/20 00:53:16;;;;;;;13.40;8.27;;;2.20;96.20;;;;;;4395182;32;20233;-66
2021/03/20 00:55:43;;;;;;;12.40;8.37;;;2.10;96.30;;;;;;4398548;32;20301;-68
2021/03/20 00:58:35;;;;;;;11.30;8.97;;;2.10;96.20;;;;;;4398110;32;20167;-68
2021/03/20 01:01:05;;;;;;;11.47;8.70;;;2.10;96.20;;;;;;4346662;32;20169;-67
2021/03/20 01:03:32;;;;;;;14.47;9.30;;;2.10;96.30;;;;;;4342783;32;20165;-66
2021/03/20 01:05:59;;;;;;;13.07;8.97;;;2.10;96.20;;;;;;4341071;33;20219;-68
2021/03/20 01:08:26;;;;;;;14.10;8.63;;;2.10;96.10;;;;;;4341408;33;20222;-67
2021/03/20 01:10:53;;;;;;;11.67;8.67;;;2.10;96.20;;;;;;4344274;32;20198;-66
2021/03/20 01:13:20;;;;;;;11.77;8.83;;;2.20;96.10;;;;;;4338421;32;20543;-67
2021/03/20 01:15:47;;;;;;;13.10;9.17;;;2.20;96.10;;;;;;4345023;32;20175;-65
2021/03/20 01:18:14;;;;;;;14.37;8.90;;;2.20;96.00;;;;;;4346946;32;20175;-68
2021/03/20 01:20:42;;;;;;;10.63;7.80;;;2.20;96.00;;;;;;4342714;32;20669;-65
2021/03/20 01:23:08;;;;;;;9.40;7.90;;;2.20;96.00;;;;;;4342595;32;20172;-65
2021/03/20 01:25:35;;;;;;;11.80;8.67;;;2.10;96.00;;;;;;4344468;33;20239;-65
2021/03/20 01:28:02;;;;;;;11.60;8.37;;;2.10;96.00;;;;;;4343649;32;20167;-65
2021/03/20 01:30:32;;;;;;;12.13;8.23;;;2.00;96.00;;;;;;4347317;33;20650;-66
2021/03/20 01:32:59;;;;;;;11.93;8.13;;;2.00;96.10;;;;;;4344661;33;20341;-68
2021/03/20 01:35:25;;;;;;;10.77;8.00;;;2.00;96.00;;;;;;4343967;33;20201;-67
2021/03/20 01:37:52;;;;;;;13.27;8.20;;;1.90;96.00;;;;;;4379404;32;20242;-65
2021/03/20 01:40:20;;;;;;;10.17;8.67;;;1.90;96.00;;;;;;4397315;32;20220;-67
2021/03/20 01:42:47;;;;;;;12.53;7.80;;;1.80;96.10;;;;;;4381806;32;20198;-67
2021/03/20 01:45:21;;;;;;;10.10;8.03;;;1.90;96.10;;;;;;4396365;32;20207;-66
2021/03/20 01:47:55;;;;;;;12.87;8.03;;;1.90;96.10;;;;;;4397392;32;20225;-63
2021/03/20 01:50:29;;;;;;;14.27;9.10;;;1.80;96.20;;;;;;4394865;32;20233;-65
2021/03/20 01:52:58;;;;;;;12.67;8.37;;;1.80;96.30;;;;;;4395311;32;20246;-66
2021/03/20 01:55:27;;;;;;;15.27;8.57;;;1.80;96.30;;;;;;4396815;32;20152;-66
2021/03/20 01:57:58;;;;;;;11.80;8.07;;;1.70;96.20;;;;;;4399054;32;20607;-68
2021/03/20 02:00:31;;;;;;;12.37;8.63;;;1.70;96.50;;;;;;4394928;32;20216;-68
2021/03/20 02:03:00;;;;;;;10.87;8.37;;;1.70;96.20;;;;;;4395373;32;20166;-67
2021/03/20 02:05:29;;;;;;;14.47;9.73;;;1.70;96.50;;;;;;4394678;32;20144;-65
2021/03/20 02:07:55;;;;;;;11.57;8.50;;;1.60;96.20;;;;;;4393385;32;20242;-64
2021/03/20 02:10:23;;;;;;;10.40;8.60;;;1.60;96.20;;;;;;4394607;32;20148;-66
2021/03/20 02:12:55;;;;;;;14.00;8.17;;;1.50;96.30;;;;;;4396459;32;20191;-65
2021/03/20 02:15:28;;;;;;;11.83;8.70;;;1.60;96.30;;;;;;4394817;32;20227;-66
2021/03/20 02:18:03;;;;;;;10.63;7.23;;;1.50;96.30;;;;;;4396314;32;20173;-65
2021/03/20 02:21:15;;;;;;;14.07;9.27;;;1.50;96.40;;;;;;4395137;32;20179;-65
2021/03/20 02:24:17;;;;;;;11.07;8.57;;;1.40;96.30;;;;;;4393569;32;20143;-67
2021/03/20 02:27:08;;;;;;;14.00;7.87;;;1.50;96.40;;;;;;4391637;32;20273;-67
2021/03/20 02:30:02;;;;;;;11.00;7.83;;;1.40;96.40;;;;;;4392889;32;20650;-63
2021/03/20 02:32:54;;;;;;;11.10;7.30;;;1.40;96.30;;;;;;4394076;32;20203;-65
2021/03/20 02:35:28;;;;;;;10.83;8.03;;;1.40;96.30;;;;;;4394963;32;20230;-64
2021/03/20 02:38:08;;;;;;;11.20;7.77;;;1.40;96.30;;;;;;4393818;32;20151;-66
2021/03/20 02:40:42;;;;;;;11.10;8.13;;;1.30;96.50;;;;;;4398143;32;20528;-62
2021/03/20 02:43:16;;;;;;;10.57;8.57;;;1.30;96.50;;;;;;4397467;32;20797;-67
2021/03/20 02:45:45;;;;;;;9.97;7.70;;;1.30;96.50;;;;;;4396451;32;20157;-66
2021/03/20 02:48:19;;;;;;;11.40;9.03;;;1.30;96.50;;;;;;4394435;32;20195;-67
2021/03/20 02:51:01;;;;;;;14.57;9.00;;;1.20;96.40;;;;;;4396489;32;20210;-69
2021/03/20 02:53:30;;;;;;;9.70;7.63;;;1.20;96.60;;;;;;4394943;32;20224;-64
2021/03/20 02:56:00;;;;;;;14.57;8.27;;;1.20;96.70;;;;;;4396371;32;20678;-63
2021/03/20 02:58:31;;;;;;;15.50;8.80;;;1.20;96.70;;;;;;4396584;32;20170;-64
2021/03/20 03:01:00;;;;;;;12.27;8.40;;;1.20;96.70;;;;;;4391586;32;20281;-63
2021/03/20 03:03:31;;;;;;;11.20;8.40;;;1.10;96.80;;;;;;4399145;32;20206;-64
2021/03/20 03:06:01;;;;;;;11.60;8.50;;;1.10;96.90;;;;;;4396954;32;20167;-65
2021/03/20 03:08:30;;;;;;;11.63;8.13;;;1.10;97.10;;;;;;4394580;32;20484;-66
2021/03/20 03:11:00;;;;;;;12.70;8.83;;;1.00;96.80;;;;;;4395124;32;20227;-66
2021/03/20 03:13:29;;;;;;;11.30;8.23;;;1.00;96.80;;;;;;4394051;32;20607;-66
2021/03/20 03:15:59;;;;;;;12.67;8.47;;;1.00;96.90;;;;;;4395430;32;20225;-67
2021/03/20 03:18:34;;;;;;;11.13;8.93;;;1.00;97.00;;;;;;4395363;32;20231;-63
2021/03/20 03:21:05;;;;;;;11.97;8.70;;;0.90;97.00;;;;;;4392616;32;20511;-66
2021/03/20 03:23:35;;;;;;;12.13;8.83;;;0.90;97.10;;;;;;4394514;32;20501;-65
2021/03/20 03:26:08;;;;;;;13.33;8.93;;;0.90;97.10;;;;;;4395725;32;20281;-65
2021/03/20 03:28:35;;;;;;;15.10;9.40;;;0.90;97.10;;;;;;4392832;32;20606;-63
2021/03/20 03:31:11;;;;;;;12.37;9.43;;;0.80;97.20;;;;;;4394011;32;20219;-67
2021/03/20 03:33:45;;;;;;;11.40;8.50;;;0.80;97.20;;;;;;4395627;32;20152;-62
2021/03/20 03:36:18;;;;;;;11.07;8.50;;;0.90;97.10;;;;;;4394534;32;20542;-66
2021/03/20 03:38:51;;;;;;;14.30;9.07;;;0.90;97.20;;;;;;4396295;32;20220;-67
2021/03/20 03:41:21;;;;;;;12.77;9.23;;;0.90;97.30;;;;;;4399219;32;20264;-66
2021/03/20 03:43:51;;;;;;;10.47;8.07;;;0.80;97.60;;;;;;4397385;32;20160;-65
2021/03/20 03:46:21;;;;;;;13.17;9.33;;;0.80;97.40;;;;;;4394004;32;20155;-65
2021/03/20 03:48:52;;;;;;;13.57;9.13;;;0.90;97.30;;;;;;4396728;32;20266;-66
2021/03/20 03:51:23;;;;;;;11.33;8.77;;;0.80;97.30;;;;;;4395002;32;20265;-65
2021/03/20 03:53:49;;;;;;;13.23;8.47;;;0.70;97.20;;;;;;4396956;32;20612;-66
2021/03/20 03:56:34;;;;;;;15.23;9.30;;;0.70;97.10;;;;;;4398873;32;20227;-66
2021/03/20 03:59:12;;;;;;;12.47;9.43;;;0.70;97.20;;;;;;4397427;32;20239;-66
2021/03/20 04:01:46;;;;;;;12.87;9.23;;;0.70;97.20;;;;;;4395164;32;20318;-66
2021/03/20 04:04:29;;;;;;;12.53;8.60;;;0.60;97.20;;;;;;4396904;32;20618;-67
2021/03/20 04:07:09;;;;;;;15.83;9.77;;;0.70;97.30;;;;;;4395443;32;20671;-66
2021/03/20 04:09:50;;;;;;;10.80;8.60;;;0.70;97.40;;;;;;4397015;32;20238;-65
2021/03/20 04:12:23;;;;;;;14.17;10.20;;;0.70;97.40;;;;;;4397591;32;20270;-65
2021/03/20 04:14:55;;;;;;;15.60;9.40;;;0.70;97.50;;;;;;4398677;32;20182;-66
2021/03/20 04:17:30;;;;;;;16.27;9.33;;;0.60;97.40;;;;;;4397054;32;20140;-64
2021/03/20 04:20:06;;;;;;;12.97;9.63;;;0.60;97.40;;;;;;4395033;32;20229;-67
2021/03/20 04:22:40;;;;;;;13.97;9.07;;;0.60;97.30;;;;;;4396077;32;20155;-63
2021/03/20 04:25:15;;;;;;;11.90;8.23;;;0.50;97.20;;;;;;4397411;32;20283;-65
2021/03/20 04:27:48;;;;;;;13.33;9.23;;;0.50;97.30;;;;;;4396325;32;20192;-67
2021/03/20 04:30:18;;;;;;;12.10;9.03;;;0.50;97.30;;;;;;4396438;32;20167;-64
2021/03/20 04:32:49;;;;;;;15.00;10.07;;;0.50;97.40;;;;;;4396524;32;20203;-64
2021/03/20 04:35:23;;;;;;;12.27;9.13;;;0.40;97.50;;;;;;4396454;32;20553;-64
2021/03/20 04:37:52;;;;;;;13.40;10.03;;;0.50;97.60;;;;;;4397733;32;20215;-67
2021/03/20 04:40:28;;;;;;;13.30;9.00;;;0.40;97.50;;;;;;4399254;32;20267;-67
2021/03/20 04:42:57;;;;;;;15.07;9.33;;;0.50;97.50;;;;;;4394388;32;20226;-62
2021/03/20 04:45:31;;;;;;;13.80;9.40;;;0.40;97.60;;;;;;4397487;32;20234;-66
2021/03/20 04:48:01;;;;;;;14.97;10.73;;;0.40;97.60;;;;;;4395851;32;20269;-65
2021/03/20 04:50:29;;;;;;;12.57;9.67;;;0.40;97.50;;;;;;4401123;32;20215;-66
2021/03/20 04:52:59;;;;;;;13.80;10.03;;;0.40;97.60;;;;;;4393767;32;20235;-66
2021/03/20 04:55:27;;;;;;;17.10;10.90;;;0.40;97.50;;;;;;4400148;32;20148;-68
2021/03/20 04:58:00;;;;;;;14.63;10.50;;;0.30;97.40;;;;;;4397789;32;20206;-66
2021/03/20 05:00:34;;;;;;;14.77;10.30;;;0.30;97.60;;;;;;4395493;32;20152;-66
2021/03/20 05:03:08;;;;;;;15.20;9.57;;;0.30;97.50;;;;;;4393340;32;20160;-64
2021/03/20 05:05:39;;;;;;;12.67;10.23;;;0.30;97.50;;;;;;4397192;32;20573;-65
2021/03/20 05:08:08;;;;;;;14.53;10.23;;;0.30;97.50;;;;;;4395728;32;20183;-66
2021/03/20 05:10:40;;;;;;;15.07;10.50;;;0.30;97.50;;;;;;4396465;32;20194;-67
2021/03/20 05:13:16;;;;;;;12.30;9.87;;;0.30;97.40;;;;;;4397450;32;20247;-66
2021/03/20 05:15:42;;;;;;;14.70;11.10;;;0.30;97.50;;;;;;4394678;32;20218;-63
2021/03/20 05:18:09;;;;;;;14.20;10.53;;;0.40;97.70;;;;;;4397453;32;20465;-66
2021/03/20 05:20:36;;;;;;;14.70;10.33;;;0.40;97.80;;;;;;4396241;32;20190;-64
2021/03/20 05:23:03;;;;;;;15.20;10.43;;;0.40;97.60;;;;;;4399016;32;20215;-67
2021/03/20 05:25:29;;;;;;;14.83;10.47;;;0.50;97.60;;;;;;4397599;32;20222;-63
2021/03/20 05:27:55;;;;;;;14.97;10.67;;;0.60;97.50;;;;;;4399092;32;20185;-67
2021/03/20 05:30:23;;;;;;;14.23;10.20;;;0.70;97.40;;;;;;4396271;32;20614;-65
2021/03/20 05:32:49;;;;;;;14.37;10.43;;;0.70;97.30;;;;;;4397276;32;20628;-64
2021/03/20 05:35:21;;;;;;;13.67;10.23;;;0.70;97.30;;;;;;4397409;32;20227;-65
2021/03/20 05:37:49;;;;;;;15.30;10.93;;;0.80;97.10;;;;;;4395761;32;20226;-65
2021/03/20 05:40:21;;;;;;;13.00;10.13;;;0.80;97.20;;;;;;4397705;32;20164;-65
2021/03/20 05:43:13;;;;;;;17.13;11.03;;;0.80;97.10;;;;;;4394102;32;20241;-66
2021/03/20 05:45:44;;;;;;;15.33;10.70;;;0.80;97.10;;;;;;4395919;32;20618;-64
2021/03/20 05:48:17;;;;;;;16.57;12.13;;;0.80;97.00;;;;;;4392590;32;20302;-66
2021/03/20 05:50:58;;;;;;;16.47;11.07;;;0.90;96.90;;;;;;4399202;32;20591;-66
2021/03/20 05:53:38;;;;;;;17.23;11.17;;;0.90;96.90;;;;;;4394602;32;20152;-63
2021/03/20 05:56:09;;;;;;;16.53;10.33;;;0.90;96.90;;;;;;4394022;32;20140;-64
2021/03/20 05:58:53;;;;;;;13.07;10.00;;;0.90;96.90;;;;;;4395429;32;20208;-66
2021/03/20 06:01:28;;;;;;;16.33;10.27;;;1.00;97.00;;;;;;4394243;32;20181;-63
2021/03/20 06:04:15;;;;;;;15.57;10.80;;;1.00;97.00;;;;;;4394083;32;20157;-68
2021/03/20 06:06:56;;;;;;;13.70;11.00;;;1.10;97.00;;;;;;4393998;32;20219;-67
2021/03/20 06:09:34;;;;;;;18.47;12.27;;;1.30;96.90;;;;;;4395854;32;20180;-65
2021/03/20 06:12:14;;;;;;;15.03;11.27;;;1.20;96.30;;;;;;4395593;32;20479;-66
2021/03/20 06:15:09;;;;;;;15.27;11.23;;;1.20;96.30;;;;;;4394890;32;20298;-67
2021/03/20 06:17:53;;;;;;;18.50;11.30;;;1.40;96.20;;;;;;4393685;32;20258;-64
2021/03/20 06:20:25;;;;;;;17.57;10.57;;;1.40;96.10;;;;;;4396687;32;20735;-67
2021/03/20 06:23:35;;;;;;;15.90;11.23;;;1.40;96.00;;;;;;4396770;32;20290;-65
2021/03/20 06:26:10;;;;;;;15.43;10.20;;;1.40;96.00;;;;;;4395477;32;20230;-66
2021/03/20 06:28:40;;;;;;;18.60;11.37;;;1.40;96.20;;;;;;4393923;32;20156;-65
2021/03/20 06:31:16;;;;;;;19.83;12.83;;;1.40;96.10;;;;;;4392640;32;20239;-63
2021/03/20 06:33:47;;;;;;;18.50;12.00;;;1.40;96.10;;;;;;4394897;32;20290;-67
2021/03/20 06:36:19;;;;;;;16.33;11.43;;;1.50;96.20;;;;;;4392787;32;20598;-64
2021/03/20 06:38:59;;;;;;;17.13;11.83;;;1.60;96.30;;;;;;4399009;32;20177;-68
2021/03/20 06:41:33;;;;;;;16.67;11.13;;;1.70;96.20;;;;;;4398215;32;20222;-65
2021/03/20 06:44:02;;;;;;;16.87;11.00;;;1.90;96.10;;;;;;4395545;32;20167;-64
2021/03/20 06:46:30;;;;;;;15.77;11.20;;;2.10;95.70;;;;;;4396637;32;20498;-67
2021/03/20 06:49:01;;;;;;;13.90;10.47;;;2.30;95.30;;;;;;4394179;32;20148;-66
2021/03/20 06:51:29;;;;;;;15.07;11.13;;;2.60;94.70;;;;;;4398129;32;20289;-65
2021/03/20 06:54:02;;;;;;;16.43;11.47;;;2.70;93.70;;;;;;4395434;32;20384;-65
2021/03/20 06:56:35;;;;;;;13.57;10.00;;;3.00;93.60;;;;;;4397064;32;20144;-63
2021/03/20 06:59:08;;;;;;;15.10;9.53;;;3.40;93.20;;;;;;4393407;32;20215;-63
2021/03/20 07:01:43;;;;;;;14.37;9.27;;;3.70;92.60;;;;;;4393628;32;20215;-67
2021/03/20 07:04:50;;;;;;;13.67;9.53;;;4.00;92.40;;;;;;4398422;32;20508;-63
2021/03/20 07:07:50;;;;;;;11.30;8.83;;;4.20;91.80;;;;;;4395914;32;20155;-64
2021/03/20 07:10:38;;;;;;;12.10;9.27;;;4.30;91.40;;;;;;4397840;32;20152;-66
2021/03/20 07:13:15;;;;;;;15.80;10.57;;;4.50;91.20;;;;;;4397305;32;20171;-66
2021/03/20 07:15:42;;;;;;;12.20;9.10;;;4.60;91.00;;;;;;4395306;32;20221;-65
2021/03/20 07:18:32;;;;;;;12.47;8.80;;;4.70;90.70;;;;;;4397987;32;21528;-64
2021/03/20 07:21:00;;;;;;;11.23;8.97;;;4.90;90.30;;;;;;4396457;32;20227;-65
2021/03/20 07:23:27;;;;;;;12.53;8.90;;;5.00;90.30;;;;;;4396359;32;20211;-65
2021/03/20 07:26:04;;;;;;;10.57;8.13;;;5.10;90.00;;;;;;4398802;32;20232;-63
2021/03/20 07:28:32;;;;;;;10.87;8.20;;;5.20;89.30;;;;;;4396979;32;20635;-65
2021/03/20 07:31:06;;;;;;;11.00;8.93;;;5.40;88.50;;;;;;4398058;32;20603;-68
2021/03/20 07:33:35;;;;;;;11.83;9.10;;;5.50;88.00;;;;;;4399431;32;20172;-65
2021/03/20 07:36:28;;;;;;;12.03;8.67;;;5.70;87.40;;;;;;4398395;32;20700;-65
2021/03/20 07:39:12;;;;;;;15.57;9.23;;;5.80;86.80;;;;;;4397552;32;20218;-62
2021/03/20 07:41:53;;;;;;;9.93;8.20;;;5.90;86.80;;;;;;4395832;32;20197;-63
2021/03/20 07:44:20;;;;;;;11.80;8.60;;;6.00;86.90;;;;;;4396693;32;20708;-64
2021/03/20 07:46:47;;;;;;;11.83;8.80;;;5.90;86.60;;;;;;4395668;32;20222;-66
2021/03/20 07:49:27;;;;;;;9.93;8.37;;;6.00;87.20;;;;;;4396695;32;20226;-62
2021/03/20 07:51:56;;;;;;;9.10;7.93;;;6.00;86.30;;;;;;4395289;32;20656;-62
2021/03/20 07:54:27;;;;;;;9.83;7.87;;;6.10;86.20;;;;;;4399491;32;20175;-67
2021/03/20 07:56:54;;;;;;;12.57;6.83;;;6.40;85.40;;;;;;4398246;32;20144;-64
2021/03/20 07:59:25;;;;;;;11.13;7.90;;;6.10;83.30;;;;;;4395235;32;20191;-64
2021/03/20 08:01:55;;;;;;;9.23;7.00;;;6.40;84.20;;;;;;4396661;32;20207;-63
2021/03/20 08:04:54;;;;;;;9.70;7.07;;;6.70;83.20;;;;;;4397676;32;20754;-65
2021/03/20 08:07:40;;;;;;;8.73;6.73;;;6.90;81.80;;;;;;4396884;32;20722;-66
2021/03/20 08:10:13;;;;;;;8.63;6.63;;;7.30;80.10;;;;;;4393756;32;20155;-66
2021/03/20 08:13:03;;;;;;;9.40;6.70;;;7.40;79.90;;;;;;4395364;32;20241;-64
2021/03/20 08:15:35;;;;;;;8.23;5.80;;;7.80;79.00;;;;;;4394507;32;20213;-67
2021/03/20 08:18:16;;;;;;;6.50;4.77;;;8.00;75.30;;;;;;4394948;32;20180;-63
2021/03/20 08:20:44;;;;;;;8.47;4.40;;;8.10;72.90;;;;;;4397596;32;20632;-62
2021/03/20 08:23:34;;;;;;;5.53;4.40;;;8.30;72.40;;;;;;4394270;32;20215;-64
2021/03/20 08:26:06;;;;;;;7.27;4.63;;;8.50;71.00;;;;;;4394576;32;20233;-63
2021/03/20 08:28:48;;;;;;;7.47;4.83;;;8.50;68.90;;;;;;4395401;32;20147;-63
2021/03/20 08:31:28;;;;;;;5.27;4.33;;;8.90;70.60;;;;;;4396914;32;20212;-64
2021/03/20 08:34:07;;;;;;;7.83;4.87;;;9.20;70.80;;;;;;4398278;32;20170;-65
2021/03/20 08:36:47;;;;;;;9.23;5.07;;;9.30;68.60;;;;;;4395473;32;20151;-66
2021/03/20 08:39:25;;;;;;;7.37;6.17;;;9.50;69.10;;;;;;4397344;32;20143;-62
2021/03/20 08:42:02;;;;;;;6.97;6.07;;;9.50;68.20;;;;;;4397161;32;20336;-64
2021/03/20 08:44:52;;;;;;;7.83;5.83;;;9.50;68.20;;;;;;4383245;32;20254;-65
2021/03/20 08:47:49;;;;;;;8.10;5.37;;;9.60;69.20;;;;;;4384705;32;20160;-67
2021/03/20 08:50:24;;;;;;;9.90;6.07;;;9.70;67.90;;;;;;4384110;32;20176;-65
2021/03/20 08:53:01;;;;;;;7.77;6.33;;;10.00;67.50;;;;;;4386000;32;20144;-66
2021/03/20 08:55:51;;;;;;;8.90;5.43;;;9.90;68.60;;;;;;4381545;32;20334;-63
2021/03/20 08:58:32;;;;;;;6.30;5.70;;;9.70;67.90;;;;;;4383401;32;20170;-65
2021/03/20 09:01:03;;;;;;;9.93;6.50;;;9.30;68.40;;;;;;4382555;32;20179;-67
2021/03/20 09:03:35;;;;;;;9.40;6.13;;;9.00;69.90;;;;;;4383379;32;20337;-65
2021/03/20 09:06:08;;;;;;;8.47;5.40;;;8.80;71.20;;;;;;4385549;32;20250;-64
2021/03/20 09:08:37;;;;;;;9.13;5.47;;;8.50;70.60;;;;;;4382494;32;20648;-65
2021/03/20 09:11:12;;;;;;;7.77;5.30;;;8.20;71.20;;;;;;4381896;32;20156;-65
2021/03/20 09:13:44;;;;;;;6.97;5.13;;;7.90;72.50;;;;;;4383686;32;20161;-66
2021/03/20 09:16:33;;;;;;;7.63;5.20;;;7.70;73.20;;;;;;4383365;32;20188;-65
2021/03/20 09:19:03;;;;;;;6.23;4.23;;;7.50;71.30;;;;;;4384544;32;20183;-64
2021/03/20 09:21:29;;;;;;;5.27;4.17;;;7.20;71.90;;;;;;4382390;32;20208;-66
2021/03/20 09:23:57;;;;;;;6.00;4.53;;;7.10;71.70;;;;;;4379392;32;20536;-64
2021/03/20 09:26:41;;;;;;;6.67;5.17;;;7.00;72.40;;;;;;4382326;32;20291;-66
2021/03/20 09:29:14;;;;;;;6.20;4.57;;;7.10;72.20;;;;;;4381768;32;20248;-66
2021/03/20 09:32:03;;;;;;;8.53;4.50;;;7.10;71.70;;;;;;4383133;32;20168;-64
2021/03/20 09:34:37;;;;;;;6.60;4.07;;;7.10;72.10;;;;;;4378212;32;20246;-66
2021/03/20 09:37:06;;;;;;;5.83;3.60;;;7.00;70.80;;;;;;4385032;32;20531;-67
2021/03/20 09:39:39;;;;;;;4.83;3.97;;;7.00;69.70;;;;;;4384896;32;20153;-65
2021/03/20 09:42:34;;;;;;;7.97;4.60;;;7.00;69.70;;;;;;4383534;32;20157;-66
2021/03/20 09:45:04;;;;;;;4.47;3.63;;;6.90;68.80;;;;;;4381952;32;20210;-66
2021/03/20 09:47:47;;;;;;;7.17;4.77;;;6.90;69.70;;;;;;4383415;32;20195;-67
2021/03/20 09:50:30;;;;;;;7.90;5.17;;;7.00;71.40;;;;;;4384433;32;20203;-67
2021/03/20 09:53:18;;;;;;;6.70;4.90;;;7.10;71.00;;;;;;4383383;32;20287;-66
2021/03/20 09:55:48;;;;;;;6.43;4.73;;;7.30;72.00;;;;;;4383151;32;20174;-65
2021/03/20 09:58:39;;;;;;;10.33;5.17;;;7.20;69.10;;;;;;4380800;32;20147;-68
2021/03/20 10:01:10;;;;;;;9.50;5.43;;;7.20;70.10;;;;;;4382346;32;20156;-65
2021/03/20 10:03:42;;;;;;;6.30;5.20;;;7.30;68.70;;;;;;4381730;32;20636;-68
2021/03/20 10:06:26;;;;;;;6.87;4.87;;;7.40;70.00;;;;;;4380171;32;20211;-68
2021/03/20 10:09:22;;;;;;;6.43;4.50;;;7.50;68.70;;;;;;4383093;32;20636;-67
2021/03/20 10:12:11;;;;;;;5.17;3.93;;;7.60;68.20;;;;;;4381436;32;20231;-66
2021/03/20 10:15:15;;;;;;;7.47;4.87;;;7.70;67.60;;;;;;4381081;32;20174;-67
2021/03/20 10:18:21;;;;;;;6.17;4.70;;;7.70;66.90;;;;;;4381118;32;20167;-66
2021/03/20 10:20:57;;;;;;;8.43;4.40;;;7.90;67.30;;;;;;4323014;33;20588;-68
2021/03/20 10:23:39;;;;;;;4.57;3.67;;;8.00;65.90;;;;;;4323777;33;20259;-67
2021/03/20 10:26:15;;;;;;;5.67;3.23;;;8.20;65.50;;;;;;4325554;33;20752;-67
2021/03/20 10:28:45;;;;;;;4.77;3.63;;;8.50;63.60;;;;;;4325422;33;20235;-68
2021/03/20 10:31:14;;;;;;;6.33;3.20;;;8.90;62.50;;;;;;4327231;33;20180;-68
2021/03/20 10:33:43;;;;;;;6.83;3.67;;;9.30;61.00;;;;;;4325214;33;20184;-68
2021/03/20 10:36:19;;;;;;;3.80;3.30;;;9.40;60.10;;;;;;4326027;33;20256;-69
2021/03/20 10:38:48;;;;;;;6.17;3.77;;;9.20;60.60;;;;;;4325954;33;20271;-67
2021/03/20 10:41:22;;;;;;;3.07;2.67;;;9.00;60.80;;;;;;4325532;33;20188;-67
2021/03/20 10:43:52;;;;;;;4.23;3.37;;;8.80;61.80;;;;;;4324229;33;20185;-66
2021/03/20 10:46:22;;;;;;;5.20;3.30;;;8.70;60.40;;;;;;4327537;33;20288;-67
2021/03/20 10:48:50;;;;;;;9.37;3.90;;;8.50;62.00;;;;;;4329797;33;20185;-65
2021/03/20 10:51:18;;;;;;;4.83;3.20;;;8.30;62.60;;;;;;4327935;33;20212;-66
2021/03/20 10:53:46;;;;;;;4.10;3.30;;;8.30;63.60;;;;;;4333770;32;20775;-68
2021/03/20 10:56:30;;;;;;;4.47;3.43;;;8.30;61.80;;;;;;4385732;32;20481;-69
2021/03/20 10:58:58;;;;;;;6.30;3.50;;;8.20;62.40;;;;;;4388400;32;20156;-67
2021/03/20 11:01:36;;;;;;;8.23;4.00;;;8.10;62.50;;;;;;4383967;32;20667;-67
2021/03/20 11:04:15;;;;;;;6.77;4.00;;;8.30;63.70;;;;;;4385185;32;20187;-68
2021/03/20 11:06:51;;;;;;;6.23;4.20;;;8.30;64.00;;;;;;4385848;32;20205;-68
2021/03/20 11:09:21;;;;;;;4.53;3.90;;;8.40;63.60;;;;;;4385762;32;20212;-68
2021/03/20 11:11:48;;;;;;;4.77;4.13;;;8.40;64.90;;;;;;4388386;32;20487;-69
2021/03/20 11:14:18;;;;;;;5.67;4.50;;;8.40;64.40;;;;;;4385660;32;20221;-67
2021/03/20 11:16:49;;;;;;;6.20;3.87;;;8.50;64.30;;;;;;4385489;32;20703;-67
2021/03/20 11:19:23;;;;;;;4.63;3.77;;;8.50;64.60;;;;;;4384752;32;20235;-69
2021/03/20 11:21:57;;;;;;;4.87;4.17;;;8.40;62.90;;;;;;4387809;32;20156;-69
2021/03/20 11:24:29;;;;;;;5.40;3.90;;;8.40;64.70;;;;;;4384206;32;20152;-67
2021/03/20 11:26:56;;;;;;;4.57;4.10;;;8.50;64.00;;;;;;4386171;32;20174;-67
2021/03/20 11:29:25;;;;;;;8.90;3.73;;;8.50;64.10;;;;;;4386511;32;20250;-67
2021/03/20 11:31:55;;;;;;;5.20;3.90;;;8.50;63.80;;;;;;4385667;32;20176;-67
2021/03/20 11:34:30;;;;;;;5.83;3.87;;;8.60;63.90;;;;;;4386254;32;20219;-68
2021/03/20 11:36:57;;;;;;;5.10;4.03;;;8.60;64.70;;;;;;4386706;32;20201;-67
2021/03/20 11:39:26;;;;;;;5.90;3.83;;;8.60;64.30;;;;;;4387147;32;20230;-68
2021/03/20 11:41:59;;;;;;;5.53;4.20;;;8.60;62.90;;;;;;4388207;32;20152;-66
2021/03/20 11:44:28;;;;;;;6.07;4.27;;;8.60;63.20;;;;;;4383986;32;20174;-67
2021/03/20 11:46:58;;;;;;;4.90;4.00;;;8.50;63.00;;;;;;4386371;32;20222;-68
2021/03/20 11:49:29;;;;;;;6.27;4.50;;;8.50;63.40;;;;;;4385712;32;20631;-67
2021/03/20 11:51:56;;;;;;;5.27;4.20;;;8.60;63.60;;;;;;4386717;32;20156;-68
2021/03/20 11:54:32;;;;;;;6.73;4.33;;;8.60;63.40;;;;;;4387462;32;20661;-66
2021/03/20 11:57:02;;;;;;;5.43;4.03;;;8.70;64.30;;;;;;4385491;32;20190;-67
2021/03/20 11:59:43;;;;;;;6.37;4.77;;;8.70;63.90;;;;;;4380795;32;20214;-67
2021/03/20 12:02:33;;;;;;;6.33;4.30;;;8.80;64.40;;;;;;4386458;32;20215;-66
2021/03/20 12:05:19;;;;;;;7.77;5.23;;;8.70;64.70;;;;;;4385628;32;20183;-69
2021/03/20 12:07:46;;;;;;;6.70;4.87;;;8.80;64.30;;;;;;4384736;32;20144;-70
2021/03/20 12:10:15;;;;;;;5.87;4.60;;;8.90;64.20;;;;;;4385706;32;20160;-66
2021/03/20 12:12:47;;;;;;;7.20;4.40;;;8.80;64.50;;;;;;4382967;32;20152;-66
2021/03/20 12:15:26;;;;;;;7.57;5.23;;;8.80;63.20;;;;;;4381666;32;20204;-67
2021/03/20 12:17:55;;;;;;;6.23;5.47;;;8.90;66.60;;;;;;4387531;32;20176;-67
2021/03/20 12:20:31;;;;;;;6.07;5.47;;;8.90;65.80;;;;;;4387424;32;20198;-67
2021/03/20 12:22:58;;;;;;;9.63;6.03;;;9.00;66.80;;;;;;4387796;32;20203;-68
2021/03/20 12:25:28;;;;;;;10.23;5.67;;;9.10;66.10;;;;;;4385956;32;20178;-69
2021/03/20 12:28:10;;;;;;;7.20;5.67;;;9.00;65.60;;;;;;4383470;32;20211;-68
2021/03/20 12:30:37;;;;;;;9.80;5.33;;;9.00;66.60;;;;;;4381434;32;20254;-68
2021/03/20 12:33:15;;;;;;;6.80;5.10;;;9.10;65.60;;;;;;4382849;32;20270;-70
2021/03/20 12:35:42;;;;;;;6.57;4.93;;;9.10;65.00;;;;;;4384621;32;20174;-68
2021/03/20 12:38:12;;;;;;;4.73;4.03;;;8.90;64.40;;;;;;4386125;32;20207;-67
2021/03/20 12:40:40;;;;;;;5.53;4.60;;;9.10;63.40;;;;;;4386468;32;20143;-68
2021/03/20 12:43:17;;;;;;;7.20;5.37;;;9.00;62.70;;;;;;4382741;32;20170;-70
2021/03/20 12:45:43;;;;;;;6.83;5.47;;;8.90;63.20;;;;;;4382657;32;20242;-66
2021/03/20 12:48:12;;;;;;;6.47;5.47;;;8.90;64.80;;;;;;4384540;32;20179;-68
2021/03/20 12:50:40;;;;;;;8.20;6.27;;;9.20;67.00;;;;;;4381703;32;20176;-68
2021/03/20 12:53:07;;;;;;;8.30;6.43;;;9.60;66.20;;;;;;4380758;32;20173;-68
2021/03/20 12:55:36;;;;;;;8.17;6.13;;;9.40;65.70;;;;;;4382318;32;20283;-67
2021/03/20 12:58:03;;;;;;;10.37;7.47;;;9.60;65.50;;;;;;4379980;32;20335;-68
2021/03/20 13:00:29;;;;;;;8.90;7.00;;;9.90;66.50;;;;;;4386988;32;20337;-67
2021/03/20 13:02:56;;;;;;;12.43;7.90;;;9.90;66.40;;;;;;4384204;32;20204;-68
2021/03/20 13:05:25;;;;;;;10.47;8.23;;;10.20;66.80;;;;;;4382116;32;20235;-67
2021/03/20 13:07:53;;;;;;;10.27;7.07;;;10.40;67.00;;;;;;4384211;32;20215;-67
2021/03/20 13:10:20;;;;;;;11.53;8.20;;;10.70;66.10;;;;;;4384846;32;20274;-68
2021/03/20 13:12:46;;;;;;;9.17;7.37;;;10.90;64.80;;;;;;4382320;32;20194;-69
2021/03/20 13:15:14;;;;;;;10.80;7.43;;;10.80;65.30;;;;;;4383688;32;20170;-69
2021/03/20 13:17:40;;;;;;;8.23;7.00;;;11.00;64.30;;;;;;4382534;32;20208;-68
2021/03/20 13:20:09;;;;;;;7.10;6.03;;;11.20;65.00;;;;;;4383290;32;20605;-69
2021/03/20 13:22:35;;;;;;;7.93;6.97;;;11.60;65.00;;;;;;4383624;32;20249;-70